Peterboro, New York
Current Conditions -  °F | °C
As of 5:53 PM on Thursday 27 Nov 2014 (Local Time) from KRME Reporting Station
Overcast Overcast  
Wind Chill: 23°   Ceiling: 4600
Heat Index: 29°   Visibility: 9mi
Dew Point: 27°   Wind: 6mph
Humidity: 92%   Direction: 280°W
Pressure: 30.06"   Gusts: NA
Location:  42.97°N, 75.69°W
Report Text: KRME 272253Z 28005KT 9SM SCT007 SCT013 OVC046 M02/M03 A3006 RMK AO2 SNE43 SLP183 P0001 T10171028
Loading
Personal Weather Stations






























Interactive Weather Map New forecast layout! Learn more

10-Day Weather Forecast

Advertisements
Track Severe Weather on mobile